createdAt,value
2023-11-17T00:00:32.804Z,10.15
2023-11-17T00:03:00.205Z,10.45
2023-11-17T00:05:27.483Z,10.98
2023-11-17T00:07:55.461Z,10.38
2023-11-17T00:10:22.749Z,9.02
2023-11-17T00:12:50.191Z,10.38
2023-11-17T00:15:18.267Z,9.32
2023-11-17T00:17:45.435Z,10.23
2023-11-17T00:20:12.918Z,10.68
2023-11-17T00:22:40.085Z,10.02
2023-11-17T00:25:10.232Z,9.48
2023-11-17T00:27:39.234Z,9.55
2023-11-17T00:30:08.816Z,9.57
2023-11-17T00:32:37.025Z,8.50
2023-11-17T00:35:05.527Z,9.80
2023-11-17T00:37:33.310Z,8.27
2023-11-17T00:40:01.352Z,7.93
2023-11-17T00:42:28.554Z,8.60
2023-11-17T00:44:55.620Z,9.43
2023-11-17T00:47:22.788Z,8.88
2023-11-17T00:49:50.741Z,9.20
2023-11-17T00:52:18.093Z,9.02
2023-11-17T00:54:48.430Z,8.35
2023-11-17T00:57:17.703Z,9.48
2023-11-17T00:59:45.397Z,9.43
2023-11-17T01:02:12.711Z,7.47
2023-11-17T01:04:39.894Z,8.43
2023-11-17T01:07:07.119Z,7.85
2023-11-17T01:09:34.347Z,12.65
2023-11-17T01:12:01.430Z,12.18
2023-11-17T01:14:28.940Z,10.98
2023-11-17T01:16:56.059Z,9.15
2023-11-17T01:19:23.763Z,8.90
2023-11-17T01:21:50.908Z,10.77
2023-11-17T01:24:18.011Z,8.40
2023-11-17T01:26:45.035Z,7.75
2023-11-17T01:29:12.443Z,8.02
2023-11-17T01:31:39.505Z,7.43
2023-11-17T01:34:07.484Z,7.70
2023-11-17T01:36:34.662Z,7.50
2023-11-17T01:39:01.704Z,8.00
2023-11-17T01:41:29.229Z,8.18
2023-11-17T01:43:56.652Z,8.45
2023-11-17T01:46:23.836Z,7.45
2023-11-17T01:48:51.006Z,7.55
2023-11-17T01:51:18.095Z,7.45
2023-11-17T01:53:46.301Z,7.32
2023-11-17T01:56:13.477Z,7.00
2023-11-17T01:58:40.800Z,6.82
2023-11-17T02:01:09.845Z,7.47
2023-11-17T02:03:40.854Z,7.43
2023-11-17T02:06:31.277Z,8.05
2023-11-17T02:09:17.849Z,6.65
2023-11-17T02:11:51.386Z,7.60
2023-11-17T02:14:22.899Z,6.82
2023-11-17T02:16:52.047Z,7.50
2023-11-17T02:19:28.288Z,6.95
2023-11-17T02:22:03.638Z,7.57
2023-11-17T02:24:41.343Z,7.68
2023-11-17T02:27:20.342Z,6.97
2023-11-17T02:29:48.946Z,8.00
2023-11-17T02:32:17.683Z,6.65
2023-11-17T02:34:45.985Z,8.00
2023-11-17T02:37:13.296Z,7.78
2023-11-17T02:39:41.216Z,7.57
2023-11-17T02:42:14.948Z,7.13
2023-11-17T02:47:10.476Z,6.60
2023-11-17T02:49:43.712Z,6.75
2023-11-17T02:52:27.440Z,7.90
2023-11-17T02:54:55.610Z,7.20
2023-11-17T02:57:26.131Z,8.27
2023-11-17T02:59:54.790Z,7.57
2023-11-17T03:02:21.904Z,7.53
2023-11-17T03:04:55.439Z,6.95
2023-11-17T03:09:53.374Z,8.05
2023-11-17T03:12:21.290Z,7.18
2023-11-17T03:14:48.345Z,7.38
2023-11-17T03:17:15.747Z,7.15
2023-11-17T03:19:42.829Z,7.72
2023-11-17T03:22:14.493Z,7.75
2023-11-17T03:24:44.755Z,8.07
2023-11-17T03:27:12.849Z,8.02
2023-11-17T03:29:40.076Z,9.05
2023-11-17T03:32:08.862Z,8.27
2023-11-17T03:34:36.231Z,7.80
2023-11-17T03:37:05.300Z,8.18
2023-11-17T03:39:43.408Z,8.43
2023-11-17T03:42:12.552Z,7.28
2023-11-17T03:44:39.865Z,7.38
2023-11-17T03:47:08.093Z,7.68
2023-11-17T03:49:35.461Z,7.68
2023-11-17T03:52:06.720Z,8.13
2023-11-17T03:54:34.162Z,6.65
2023-11-17T03:57:04.628Z,7.43
2023-11-17T03:59:31.989Z,7.05
2023-11-17T04:02:00.209Z,7.32
2023-11-17T04:04:27.689Z,7.20
2023-11-17T04:06:58.605Z,8.35
2023-11-17T04:09:26.635Z,7.63
2023-11-17T04:11:54.711Z,7.00
2023-11-17T04:14:23.568Z,8.45
2023-11-17T04:16:51.524Z,7.82
2023-11-17T04:19:22.533Z,7.93
2023-11-17T04:21:50.693Z,7.53
2023-11-17T04:24:18.616Z,7.05
2023-11-17T04:26:47.311Z,7.78
2023-11-17T04:29:14.746Z,7.28
2023-11-17T04:31:43.054Z,7.28
2023-11-17T04:34:12.757Z,7.22
2023-11-17T04:36:40.220Z,7.88
2023-11-17T04:39:18.401Z,8.20
2023-11-17T04:41:46.563Z,8.18
2023-11-17T04:44:14.257Z,8.15
2023-11-17T04:46:41.609Z,6.82
2023-11-17T04:49:08.766Z,8.32
2023-11-17T04:51:36.480Z,7.68
2023-11-17T04:54:03.559Z,7.75
2023-11-17T04:56:31.476Z,7.05
2023-11-17T04:58:58.596Z,7.70
2023-11-17T05:01:25.852Z,8.38
2023-11-17T05:03:53.104Z,8.02
2023-11-17T05:06:24.467Z,7.70
2023-11-17T05:08:51.877Z,7.80
2023-11-17T05:11:19.051Z,7.80
2023-11-17T05:13:46.236Z,7.50
2023-11-17T05:16:15.319Z,7.40
2023-11-17T05:18:43.981Z,8.07
2023-11-17T05:21:14.010Z,9.75
2023-11-17T05:23:41.565Z,15.52
2023-11-17T05:26:09.958Z,13.35
2023-11-17T05:28:37.368Z,12.30
2023-11-17T05:31:04.756Z,14.27
2023-11-17T05:33:31.969Z,12.07
2023-11-17T05:35:59.757Z,9.80
2023-11-17T05:38:27.573Z,8.15
2023-11-17T05:40:54.722Z,8.68
2023-11-17T05:43:21.903Z,8.48
2023-11-17T05:45:51.504Z,8.90
2023-11-17T05:48:18.770Z,8.82
2023-11-17T05:50:45.959Z,10.10
2023-11-17T05:53:14.874Z,11.77
2023-11-17T05:55:45.530Z,12.48
2023-11-17T05:58:13.762Z,10.95
2023-11-17T06:00:43.422Z,10.82
2023-11-17T06:03:10.561Z,11.13
2023-11-17T06:05:37.768Z,11.02
2023-11-17T06:08:05.872Z,9.93
2023-11-17T06:10:33.234Z,10.23
2023-11-17T06:13:01.298Z,9.68
2023-11-17T06:15:29.399Z,9.30
2023-11-17T06:17:57.400Z,10.00
2023-11-17T06:20:26.736Z,10.13
2023-11-17T06:22:53.855Z,9.18
2023-11-17T06:25:21.027Z,10.05
2023-11-17T06:27:50.887Z,10.43
2023-11-17T06:30:18.144Z,9.05
2023-11-17T06:32:45.237Z,9.20
2023-11-17T06:35:12.959Z,9.68
2023-11-17T06:37:40.084Z,8.25
2023-11-17T06:40:11.668Z,8.48
2023-11-17T06:42:41.023Z,8.43
2023-11-17T06:45:08.508Z,8.30
2023-11-17T06:47:36.069Z,8.63
2023-11-17T06:50:05.793Z,9.07
2023-11-17T06:52:32.973Z,8.90
2023-11-17T06:55:00.648Z,9.27
2023-11-17T06:57:29.175Z,8.98
2023-11-17T06:59:56.270Z,8.23
2023-11-17T07:02:23.456Z,9.02
2023-11-17T07:04:50.568Z,9.32
2023-11-17T07:07:17.678Z,9.07
2023-11-17T07:09:44.830Z,9.60
2023-11-17T07:12:11.946Z,8.43
2023-11-17T07:14:39.757Z,9.05
2023-11-17T07:17:07.081Z,9.23
2023-11-17T07:19:35.465Z,9.95
2023-11-17T07:22:03.060Z,9.02
2023-11-17T07:24:30.647Z,10.30
2023-11-17T07:27:00.061Z,10.18
2023-11-17T07:29:28.407Z,9.27
2023-11-17T07:31:55.686Z,9.85
2023-11-17T07:34:23.070Z,9.90
2023-11-17T07:36:50.329Z,10.38
2023-11-17T07:39:22.767Z,10.13
2023-11-17T07:41:50.244Z,10.23
2023-11-17T07:44:17.582Z,11.05
2023-11-17T07:46:46.710Z,10.73
2023-11-17T07:49:15.156Z,9.82
2023-11-17T07:51:43.912Z,10.35
2023-11-17T07:54:13.115Z,10.70
2023-11-17T07:56:41.656Z,10.32
2023-11-17T07:59:12.074Z,9.52
2023-11-17T08:01:40.717Z,10.55
2023-11-17T08:04:11.913Z,10.57
2023-11-17T08:06:40.206Z,9.73
2023-11-17T08:09:11.060Z,11.52
2023-11-17T08:11:39.364Z,11.07
2023-11-17T08:14:06.674Z,11.35
2023-11-17T08:16:34.879Z,11.38
2023-11-17T08:19:10.695Z,11.18
2023-11-17T08:21:45.813Z,11.77
2023-11-17T08:24:13.763Z,10.38
2023-11-17T08:26:41.252Z,10.73
2023-11-17T08:29:08.990Z,11.48
2023-11-17T08:31:36.175Z,11.43
2023-11-17T08:34:03.299Z,11.38
2023-11-17T08:36:30.662Z,11.60
2023-11-17T08:38:58.636Z,10.80
2023-11-17T08:41:25.826Z,10.57
2023-11-17T08:43:59.174Z,11.77
2023-11-17T08:46:29.898Z,12.05
2023-11-17T08:48:57.697Z,11.68
2023-11-17T08:51:25.007Z,10.95
2023-11-17T08:53:52.160Z,11.48
2023-11-17T08:56:19.424Z,13.20
2023-11-17T08:58:46.511Z,13.00
2023-11-17T09:01:14.278Z,11.80
2023-11-17T09:03:43.981Z,11.77
2023-11-17T09:06:12.810Z,12.10
2023-11-17T09:08:39.913Z,13.70
2023-11-17T09:11:09.335Z,12.63
2023-11-17T09:13:38.040Z,11.82
2023-11-17T09:16:08.706Z,18.77
2023-11-17T09:18:36.974Z,15.00
2023-11-17T09:21:07.202Z,13.90
2023-11-17T09:23:35.722Z,13.10
2023-11-17T09:26:04.425Z,13.93
2023-11-17T09:28:31.744Z,14.93
2023-11-17T09:31:00.013Z,14.35
2023-11-17T09:33:29.740Z,16.33
2023-11-17T09:36:01.957Z,15.13
2023-11-17T09:38:36.855Z,15.20
2023-11-17T09:41:05.913Z,14.13
2023-11-17T09:43:39.974Z,14.43
2023-11-17T09:46:11.706Z,13.55
2023-11-17T09:48:40.819Z,14.18
2023-11-17T09:51:09.178Z,13.77
2023-11-17T09:53:39.267Z,14.45
2023-11-17T09:56:10.199Z,12.82
2023-11-17T09:58:39.220Z,13.45
2023-11-17T10:01:11.907Z,12.07
2023-11-17T10:03:40.323Z,11.57
2023-11-17T10:06:09.326Z,11.68
2023-11-17T10:08:40.754Z,12.07
2023-11-17T10:11:11.257Z,11.32
2023-11-17T10:13:39.845Z,12.75
2023-11-17T10:16:09.378Z,12.23
2023-11-17T10:18:38.476Z,11.93
2023-11-17T10:21:06.124Z,11.32
2023-11-17T10:23:34.350Z,11.65
2023-11-17T10:26:02.251Z,10.55
2023-11-17T10:28:30.089Z,10.73
2023-11-17T10:31:01.970Z,9.88
2023-11-17T10:33:31.283Z,9.68
2023-11-17T10:36:05.754Z,9.07
2023-11-17T10:38:36.602Z,10.07
2023-11-17T10:41:36.595Z,9.82
2023-11-17T10:44:04.945Z,8.63
2023-11-17T10:46:41.753Z,8.07
2023-11-17T10:49:17.893Z,8.60
2023-11-17T10:51:50.745Z,8.52
2023-11-17T10:54:19.549Z,7.97
2023-11-17T10:56:51.408Z,9.75
2023-11-17T10:59:22.136Z,7.72
2023-11-17T11:01:52.548Z,8.57
2023-11-17T11:04:27.426Z,7.93
2023-11-17T11:07:02.586Z,7.38
2023-11-17T11:09:36.302Z,8.27
2023-11-17T11:12:24.612Z,9.70
2023-11-17T11:14:53.647Z,8.10
2023-11-17T11:17:20.865Z,6.82
2023-11-17T11:19:58.471Z,5.47
2023-11-17T11:22:37.331Z,5.63
2023-11-17T11:25:06.828Z,5.60
2023-11-17T11:27:36.975Z,5.20
2023-11-17T11:30:07.303Z,4.88
2023-11-17T11:32:36.254Z,4.57
2023-11-17T11:35:04.517Z,4.65
2023-11-17T11:37:35.046Z,4.43
2023-11-17T11:40:02.537Z,5.60
2023-11-17T11:42:30.497Z,6.30
2023-11-17T11:44:58.875Z,5.53
2023-11-17T11:47:26.165Z,4.63
2023-11-17T11:49:55.183Z,4.15
2023-11-17T11:52:32.347Z,4.20
2023-11-17T11:55:00.356Z,3.90
2023-11-17T11:57:30.606Z,4.45
2023-11-17T12:00:07.313Z,4.63
2023-11-17T12:02:35.154Z,4.28
2023-11-17T12:05:06.979Z,4.68
2023-11-17T12:07:36.731Z,5.43
2023-11-17T12:10:06.449Z,5.25
2023-11-17T12:12:35.087Z,4.97
2023-11-17T12:15:05.084Z,5.30
2023-11-17T12:17:32.725Z,4.68
2023-11-17T12:20:32.760Z,5.13
2023-11-17T12:23:02.563Z,5.25
2023-11-17T12:25:31.453Z,5.18
2023-11-17T12:28:01.303Z,5.40
2023-11-17T12:30:29.056Z,5.78
2023-11-17T12:32:57.635Z,5.60
2023-11-17T12:35:28.662Z,7.00
2023-11-17T12:37:57.272Z,6.45
2023-11-17T12:40:24.804Z,7.00
2023-11-17T12:42:52.195Z,7.93
2023-11-17T12:45:21.214Z,7.60
2023-11-17T12:47:48.924Z,7.57
2023-11-17T12:50:16.102Z,7.07
2023-11-17T12:55:26.445Z,7.30
2023-11-17T12:57:53.561Z,7.75
2023-11-17T13:00:29.689Z,7.55
2023-11-17T13:02:57.242Z,7.20
2023-11-17T13:05:26.946Z,6.72
2023-11-17T13:07:55.846Z,6.72
2023-11-17T13:10:23.161Z,6.57
2023-11-17T13:12:50.563Z,6.70
2023-11-17T13:15:17.749Z,7.90
2023-11-17T13:17:45.460Z,7.35
2023-11-17T13:20:24.302Z,6.25
2023-11-17T13:22:52.388Z,5.80
2023-11-17T13:25:20.498Z,5.72
2023-11-17T13:27:47.746Z,4.40
2023-11-17T13:30:15.516Z,5.50
2023-11-17T13:33:02.406Z,5.25
2023-11-17T13:35:31.640Z,5.10
2023-11-17T13:38:00.898Z,5.80
2023-11-17T13:40:31.041Z,5.50
2023-11-17T13:42:58.723Z,5.68
2023-11-17T13:45:26.417Z,5.25
2023-11-17T13:48:01.228Z,4.65
2023-11-17T13:50:29.007Z,4.95
2023-11-17T13:52:56.764Z,4.82
2023-11-17T13:55:28.899Z,6.28
2023-11-17T13:57:57.321Z,6.38
2023-11-17T14:00:27.486Z,8.05
2023-11-17T14:02:56.318Z,5.60
2023-11-17T14:05:23.800Z,5.40
2023-11-17T14:07:51.063Z,6.28
2023-11-17T14:10:19.106Z,6.55
2023-11-17T14:12:47.342Z,7.22
2023-11-17T14:15:15.196Z,5.72
2023-11-17T14:17:44.771Z,5.05
2023-11-17T14:20:16.498Z,5.22
2023-11-17T14:22:44.485Z,5.43
2023-11-17T14:25:13.055Z,5.80
2023-11-17T14:27:40.264Z,5.65
2023-11-17T14:30:09.028Z,4.85
2023-11-17T14:32:36.579Z,3.78
2023-11-17T14:35:04.481Z,4.20
2023-11-17T14:37:31.766Z,4.43
2023-11-17T14:40:00.215Z,4.88
2023-11-17T14:42:28.033Z,4.72
2023-11-17T14:44:55.136Z,4.20
2023-11-17T14:47:24.316Z,4.18
2023-11-17T14:49:52.070Z,3.83
2023-11-17T14:52:19.362Z,4.40
2023-11-17T14:54:47.298Z,4.35
2023-11-17T14:57:15.784Z,4.38
2023-11-17T14:59:45.730Z,4.70
2023-11-17T15:02:14.686Z,5.38
2023-11-17T15:04:41.879Z,5.10
2023-11-17T15:07:09.885Z,5.55
2023-11-17T15:09:39.602Z,5.03
2023-11-17T15:12:08.134Z,5.25
2023-11-17T15:14:35.865Z,5.03
2023-11-17T15:17:03.075Z,5.40
2023-11-17T15:19:30.439Z,6.95
2023-11-17T15:21:59.466Z,6.63
2023-11-17T15:24:29.104Z,7.82
2023-11-17T15:26:56.924Z,7.03
2023-11-17T15:29:31.123Z,6.70
2023-11-17T15:32:04.952Z,6.35
2023-11-17T15:34:32.338Z,6.18
2023-11-17T15:36:59.946Z,6.28
2023-11-17T15:39:31.814Z,5.57
2023-11-17T15:41:59.389Z,6.15
2023-11-17T15:44:26.545Z,6.95
2023-11-17T15:46:54.224Z,7.85
2023-11-17T15:49:22.159Z,7.20
2023-11-17T15:51:51.432Z,6.68
2023-11-17T15:54:18.553Z,8.57
2023-11-17T15:56:47.514Z,8.30
2023-11-17T15:59:15.372Z,8.02
2023-11-17T16:01:45.190Z,14.48
2023-11-17T16:04:13.989Z,49.67
2023-11-17T16:06:42.939Z,25.50
2023-11-17T16:09:11.770Z,37.83
2023-11-17T16:11:40.843Z,37.70
2023-11-17T16:14:11.030Z,45.25
2023-11-17T16:16:38.306Z,13.55
2023-11-17T16:19:05.470Z,11.30
2023-11-17T16:21:33.726Z,12.30
2023-11-17T16:24:00.837Z,11.20
2023-11-17T16:26:29.395Z,12.75
2023-11-17T16:29:00.582Z,16.70
2023-11-17T16:31:28.095Z,19.88
2023-11-17T16:33:55.289Z,19.30
2023-11-17T16:36:25.120Z,15.57
2023-11-17T16:38:52.722Z,15.52
2023-11-17T16:41:21.548Z,17.92
2023-11-17T16:43:51.220Z,14.20
2023-11-17T16:46:21.157Z,12.18
2023-11-17T16:48:48.567Z,13.40
2023-11-17T16:51:16.265Z,15.10
2023-11-17T16:53:44.029Z,14.63
2023-11-17T16:56:11.128Z,13.85
2023-11-17T16:58:41.684Z,15.30
2023-11-17T17:01:10.444Z,14.15
2023-11-17T17:03:38.100Z,13.70
2023-11-17T17:06:05.721Z,14.30
2023-11-17T17:08:36.044Z,15.13
2023-11-17T17:11:05.721Z,17.27
2023-11-17T17:13:35.076Z,16.52
2023-11-17T17:16:02.377Z,15.52
2023-11-17T17:18:30.743Z,18.98
2023-11-17T17:20:58.632Z,21.48
2023-11-17T17:23:26.587Z,22.08
2023-11-17T17:25:56.475Z,22.48
2023-11-17T17:28:23.758Z,22.20
2023-11-17T17:30:50.923Z,24.90
2023-11-17T17:33:18.259Z,24.40
2023-11-17T17:35:46.440Z,27.33
2023-11-17T17:38:15.511Z,31.60
2023-11-17T17:40:44.809Z,31.75
2023-11-17T17:43:14.087Z,34.90
2023-11-17T17:45:45.044Z,30.45
2023-11-17T17:48:13.788Z,48.72
2023-11-17T17:50:41.049Z,68.88
2023-11-17T17:53:09.881Z,42.83
2023-11-17T17:55:37.875Z,58.85
2023-11-17T17:58:07.744Z,30.65
2023-11-17T18:00:35.070Z,24.48
2023-11-17T18:03:06.017Z,21.13
2023-11-17T18:05:33.452Z,21.65
2023-11-17T18:08:01.610Z,21.02
2023-11-17T18:10:29.442Z,20.38
2023-11-17T18:12:56.817Z,19.67
2023-11-17T18:15:24.515Z,23.17
2023-11-17T18:17:53.263Z,23.15
2023-11-17T18:20:24.279Z,24.58
2023-11-17T18:22:53.140Z,21.02
2023-11-17T18:25:22.038Z,19.33
2023-11-17T18:27:50.828Z,20.52
2023-11-17T18:30:21.464Z,19.13
2023-11-17T18:32:48.953Z,18.60
2023-11-17T18:35:16.961Z,19.58
2023-11-17T18:37:54.518Z,23.23
2023-11-17T18:40:25.593Z,20.13
2023-11-17T18:42:53.412Z,20.92
2023-11-17T18:45:21.510Z,22.83
2023-11-17T18:47:49.294Z,22.25
2023-11-17T18:50:17.851Z,20.85
2023-11-17T18:52:45.757Z,20.45
2023-11-17T18:55:15.105Z,20.77
2023-11-17T18:57:44.509Z,20.42
2023-11-17T19:00:19.100Z,19.80
2023-11-17T19:02:53.722Z,19.35
2023-11-17T19:05:21.842Z,20.95
2023-11-17T19:07:50.590Z,21.02
2023-11-17T19:10:21.375Z,22.50
2023-11-17T19:12:50.807Z,23.55
2023-11-17T19:15:22.997Z,21.60
2023-11-17T19:17:50.603Z,20.35
2023-11-17T19:20:17.850Z,21.33
2023-11-17T19:22:46.788Z,19.63
2023-11-17T19:25:18.007Z,20.63
2023-11-17T19:27:45.421Z,20.52
2023-11-17T19:30:17.774Z,23.13
2023-11-17T19:32:47.943Z,23.55
2023-11-17T19:35:16.835Z,24.83
2023-11-17T19:37:45.757Z,25.42
2023-11-17T19:40:16.700Z,26.05
2023-11-17T19:42:45.658Z,27.05
2023-11-17T19:45:18.410Z,26.52
2023-11-17T19:47:47.116Z,26.48
2023-11-17T19:50:18.429Z,24.35
2023-11-17T19:52:50.876Z,27.40
2023-11-17T19:55:25.135Z,39.03
2023-11-17T19:57:53.940Z,35.88
2023-11-17T20:00:25.424Z,30.13
2023-11-17T20:02:54.453Z,28.30
2023-11-17T20:05:25.109Z,25.92
2023-11-17T20:07:53.484Z,26.40
2023-11-17T20:10:21.412Z,27.55
2023-11-17T20:12:48.693Z,26.38
2023-11-17T20:15:16.258Z,26.92
2023-11-17T20:17:55.024Z,26.63
2023-11-17T20:20:28.468Z,30.08
2023-11-17T20:22:59.779Z,31.98
2023-11-17T20:25:28.073Z,32.97
2023-11-17T20:27:56.774Z,41.78
2023-11-17T20:30:25.916Z,36.42
2023-11-17T20:32:58.931Z,33.92
2023-11-17T20:35:26.369Z,39.97
2023-11-17T20:37:54.274Z,32.80
2023-11-17T20:40:22.821Z,29.80
2023-11-17T20:42:52.023Z,30.25
2023-11-17T20:45:24.400Z,29.75
2023-11-17T20:47:52.642Z,29.38
2023-11-17T20:50:23.166Z,29.25
2023-11-17T20:52:53.233Z,28.38
2023-11-17T20:55:21.958Z,28.08
2023-11-17T20:57:56.591Z,27.20
2023-11-17T21:00:24.657Z,26.25
2023-11-17T21:02:53.831Z,27.13
2023-11-17T21:05:23.278Z,26.67
2023-11-17T21:07:52.553Z,26.02
2023-11-17T21:10:23.095Z,25.95
2023-11-17T21:12:52.268Z,26.55
2023-11-17T21:15:20.323Z,26.83
2023-11-17T21:17:48.007Z,25.55
2023-11-17T21:20:15.904Z,27.65
2023-11-17T21:22:43.761Z,26.63
2023-11-17T21:25:13.691Z,24.92
2023-11-17T21:27:45.050Z,26.27
2023-11-17T21:30:16.712Z,25.38
2023-11-17T21:32:45.943Z,26.63
2023-11-17T21:35:15.077Z,26.20
2023-11-17T21:37:43.854Z,26.70
2023-11-17T21:40:14.834Z,27.27
2023-11-17T21:42:46.261Z,25.23
2023-11-17T21:45:16.000Z,28.13
2023-11-17T21:47:56.360Z,27.63
2023-11-17T21:50:25.575Z,27.27
2023-11-17T21:52:55.361Z,26.55
2023-11-17T21:55:23.059Z,27.98
2023-11-17T21:57:50.235Z,25.42
2023-11-17T22:00:19.049Z,26.63
2023-11-17T22:02:47.961Z,26.00
2023-11-17T22:05:17.331Z,26.55
2023-11-17T22:07:46.409Z,26.88
2023-11-17T22:10:14.786Z,25.60
2023-11-17T22:12:43.902Z,27.38
2023-11-17T22:15:14.006Z,25.20
2023-11-17T22:17:45.028Z,25.75
2023-11-17T22:20:15.015Z,25.60
2023-11-17T22:22:45.452Z,25.58
2023-11-17T22:25:14.762Z,24.58
2023-11-17T22:27:44.749Z,25.77
2023-11-17T22:30:24.323Z,26.13
2023-11-17T22:32:54.055Z,24.08
2023-11-17T22:35:21.370Z,25.27
2023-11-17T22:37:52.048Z,24.25
2023-11-17T22:40:23.388Z,26.23
2023-11-17T22:42:52.640Z,26.17
2023-11-17T22:45:20.120Z,26.13
2023-11-17T22:47:48.326Z,25.75
2023-11-17T22:50:18.336Z,25.60
2023-11-17T22:52:46.448Z,25.13
2023-11-17T22:55:15.008Z,23.98
2023-11-17T22:57:42.143Z,25.08
2023-11-17T23:00:17.016Z,25.73
2023-11-17T23:02:45.379Z,23.98
2023-11-17T23:05:13.988Z,25.65
2023-11-17T23:07:41.245Z,25.13
2023-11-17T23:10:14.077Z,25.08
2023-11-17T23:12:41.182Z,25.23
2023-11-17T23:15:09.072Z,24.13
2023-11-17T23:17:38.848Z,25.33
2023-11-17T23:20:08.904Z,25.20
2023-11-17T23:22:36.280Z,25.50
2023-11-17T23:25:06.892Z,23.77
2023-11-17T23:27:34.156Z,24.65
2023-11-17T23:30:01.914Z,24.52
2023-11-17T23:32:29.281Z,24.45
2023-11-17T23:34:56.552Z,26.02
2023-11-17T23:37:23.705Z,27.02
2023-11-17T23:39:50.805Z,24.58
2023-11-17T23:42:19.066Z,25.85
2023-11-17T23:44:46.197Z,25.58
2023-11-17T23:47:14.752Z,26.73
2023-11-17T23:49:42.315Z,25.83
2023-11-17T23:52:09.448Z,27.17
2023-11-17T23:54:36.625Z,27.17
2023-11-17T23:57:04.037Z,25.02
2023-11-17T23:59:31.505Z,26.77
